createdAt,value
2022-11-28T00:18:33.566Z,11.20
2022-11-28T00:37:12.656Z,10.70
2022-11-28T00:55:51.658Z,11.60
2022-11-28T01:33:09.588Z,14.70
2022-11-28T01:51:47.956Z,14.10
2022-11-28T02:10:28.130Z,19.20
2022-11-28T02:29:07.337Z,14.10
2022-11-28T02:47:47.910Z,8.00
2022-11-28T03:06:30.517Z,9.40
2022-11-28T03:25:11.933Z,18.50
2022-11-28T03:43:43.886Z,13.00
2022-11-28T04:02:25.063Z,14.10
2022-11-28T04:21:01.437Z,16.10
2022-11-28T04:39:44.770Z,10.90
2022-11-28T04:58:20.330Z,13.60
2022-11-28T05:16:58.072Z,13.80
2022-11-28T05:35:39.656Z,20.80
2022-11-28T05:54:16.009Z,15.40
2022-11-28T06:12:55.519Z,15.60
2022-11-28T06:31:33.890Z,12.00
2022-11-28T06:50:13.196Z,11.10
2022-11-28T07:08:51.585Z,9.40
2022-11-28T07:27:32.354Z,13.90
2022-11-28T07:46:11.364Z,15.80
2022-11-28T08:04:55.432Z,10.70
2022-11-28T08:23:31.611Z,11.70
2022-11-28T08:42:10.764Z,18.80
2022-11-28T09:38:12.464Z,16.00
2022-11-28T09:56:51.091Z,13.30
2022-11-28T10:34:11.310Z,10.00
2022-11-28T10:52:50.000Z,12.20
2022-11-28T11:11:32.968Z,14.20
2022-11-28T11:30:14.247Z,11.10
2022-11-28T11:48:51.285Z,11.90
2022-11-28T12:26:13.782Z,11.40
2022-11-28T12:44:48.708Z,5.50
2022-11-28T13:03:32.935Z,6.40
2022-11-28T13:22:12.442Z,14.00
2022-11-28T13:40:44.194Z,18.50
2022-11-28T13:59:26.661Z,10.80
2022-11-28T14:36:40.164Z,12.90
2022-11-28T14:55:17.629Z,10.70
2022-11-28T15:13:56.914Z,12.50
2022-11-28T15:51:17.639Z,9.70
2022-11-28T16:09:52.685Z,21.90
2022-11-28T16:28:31.406Z,13.10
2022-11-28T16:47:12.296Z,12.20
2022-11-28T17:05:48.262Z,9.30
2022-11-28T17:24:26.971Z,10.80
2022-11-28T17:43:08.460Z,10.40
2022-11-28T18:20:15.026Z,15.20
2022-11-28T18:38:49.355Z,15.60
2022-11-28T18:57:27.295Z,21.20
2022-11-28T19:16:06.230Z,22.30
2022-11-28T19:34:45.211Z,25.60
2022-11-28T19:53:25.497Z,27.00
2022-11-28T20:12:22.653Z,20.30
2022-11-28T20:30:43.546Z,20.50
2022-11-28T20:49:27.214Z,20.30
2022-11-28T21:08:02.978Z,23.70
2022-11-28T21:26:49.586Z,17.10
2022-11-28T21:45:21.571Z,17.50
2022-11-28T22:04:03.367Z,19.30
2022-11-28T22:22:39.531Z,28.40
2022-11-28T22:41:27.793Z,23.90
2022-11-28T23:18:37.347Z,19.30
2022-11-28T23:37:22.049Z,16.00
2022-11-28T23:55:58.143Z,15.50
